Time;durP1;ratioP1;P1;durP2;ratioP2;P2;SDS_P1;SDS_P2;PMS_P1;PMS_P2;Temp;Humidity;BMP_temperature;BMP_pressure;BME280_temperature;BME280_humidity;BME280_pressure;Samples;Min_cycle;Max_cycle;Signal;HPM_P1;HPM_P2
2022/07/07 00:00:41;;;;;;;4.97;1.80;;;15.30;99.90;;;;;;5021603;28;20439;-44
2022/07/07 00:03:06;;;;;;;4.90;2.00;;;15.20;99.90;;;;;;5021447;28;20029;-44
2022/07/07 00:05:32;;;;;;;7.13;1.98;;;15.10;99.90;;;;;;5021970;28;20029;-44
2022/07/07 00:07:57;;;;;;;5.28;1.63;;;15.10;99.90;;;;;;5019881;28;20403;-45
2022/07/07 00:10:23;;;;;;;4.78;1.63;;;15.20;99.90;;;;;;5021827;28;20053;-45
2022/07/07 00:12:49;;;;;;;7.05;1.60;;;15.20;99.90;;;;;;5022596;28;20028;-44
2022/07/07 00:15:14;;;;;;;4.63;1.83;;;15.10;99.90;;;;;;5020140;28;20029;-44
2022/07/07 00:17:40;;;;;;;2.80;1.40;;;15.00;99.90;;;;;;5021890;28;20441;-45
2022/07/07 00:20:06;;;;;;;3.63;1.60;;;15.10;99.90;;;;;;5025293;28;20025;-44
2022/07/07 00:22:32;;;;;;;4.38;1.33;;;15.10;99.90;;;;;;5024344;28;20014;-44
2022/07/07 00:24:58;;;;;;;2.70;1.55;;;15.10;99.90;;;;;;5021612;28;20067;-46
2022/07/07 00:27:24;;;;;;;5.68;1.70;;;15.10;99.90;;;;;;5025316;28;20538;-45
2022/07/07 00:29:49;;;;;;;6.80;1.85;;;15.10;99.90;;;;;;5023028;28;20108;-45
2022/07/07 00:32:15;;;;;;;4.55;2.05;;;15.00;99.90;;;;;;5020886;28;20021;-45
2022/07/07 00:34:40;;;;;;;2.58;1.60;;;15.00;99.90;;;;;;5020577;28;20037;-45
2022/07/07 00:37:05;;;;;;;4.82;1.70;;;15.00;99.90;;;;;;5020557;28;20034;-46
2022/07/07 00:39:31;;;;;;;5.90;1.77;;;15.00;99.90;;;;;;5022065;28;20036;-45
2022/07/07 00:41:56;;;;;;;4.53;1.50;;;15.00;99.90;;;;;;5020030;28;20026;-46
2022/07/07 00:44:22;;;;;;;12.02;1.80;;;14.90;99.90;;;;;;5020613;28;20025;-44
2022/07/07 00:46:51;;;;;;;7.00;2.03;;;14.90;99.90;;;;;;5021715;28;20087;-45
2022/07/07 00:49:19;;;;;;;3.88;1.88;;;14.90;99.90;;;;;;5021640;28;20521;-45
2022/07/07 00:51:45;;;;;;;5.13;2.03;;;14.80;99.90;;;;;;5021367;28;20472;-46
2022/07/07 00:54:12;;;;;;;6.18;2.00;;;14.70;99.90;;;;;;5019287;28;20041;-47
2022/07/07 00:56:38;;;;;;;7.95;2.08;;;14.60;99.90;;;;;;5023769;28;20064;-47
2022/07/07 00:59:06;;;;;;;4.88;2.15;;;14.60;99.90;;;;;;5023778;28;20029;-46
2022/07/07 01:01:34;;;;;;;3.95;2.17;;;14.50;99.90;;;;;;5020331;28;20021;-45
2022/07/07 01:04:00;;;;;;;5.13;2.25;;;14.40;99.90;;;;;;5019194;28;20494;-45
2022/07/07 01:06:26;;;;;;;5.28;2.80;;;14.40;99.90;;;;;;5020236;28;20090;-44
2022/07/07 01:08:53;;;;;;;4.18;2.58;;;14.40;99.90;;;;;;5021595;28;20029;-45
2022/07/07 01:11:19;;;;;;;4.75;2.42;;;14.40;99.90;;;;;;5018875;28;20464;-44
2022/07/07 01:13:44;;;;;;;6.10;2.83;;;14.30;99.90;;;;;;5020306;28;20056;-47
2022/07/07 01:16:10;;;;;;;4.15;2.85;;;14.20;99.90;;;;;;5020973;28;20033;-46
2022/07/07 01:18:35;;;;;;;10.10;3.60;;;14.20;99.90;;;;;;5019409;28;20022;-45
2022/07/07 01:21:03;;;;;;;5.05;2.78;;;14.20;99.90;;;;;;5020780;28;20155;-45
2022/07/07 01:23:28;;;;;;;5.57;3.33;;;14.10;99.90;;;;;;5021146;28;20010;-45
2022/07/07 01:25:54;;;;;;;9.30;3.22;;;14.20;99.90;;;;;;5020796;28;20026;-45
2022/07/07 01:28:19;;;;;;;6.47;3.58;;;14.20;99.90;;;;;;5024891;28;20036;-48
2022/07/07 01:30:45;;;;;;;6.53;2.97;;;14.10;99.90;;;;;;5020510;28;20117;-44
2022/07/07 01:33:10;;;;;;;5.60;3.50;;;14.10;99.90;;;;;;5019442;28;20037;-43
2022/07/07 01:35:36;;;;;;;5.63;4.00;;;14.10;99.90;;;;;;5020521;28;20026;-45
2022/07/07 01:38:01;;;;;;;8.63;3.88;;;14.10;99.90;;;;;;5019765;28;20057;-44
2022/07/07 01:40:27;;;;;;;8.45;4.55;;;14.10;99.90;;;;;;5019388;28;20020;-45
2022/07/07 01:42:52;;;;;;;7.60;4.13;;;14.10;99.90;;;;;;5020827;28;20020;-44
2022/07/07 01:45:18;;;;;;;12.23;4.53;;;14.00;99.90;;;;;;5018542;28;20018;-44
2022/07/07 01:47:43;;;;;;;6.35;4.55;;;14.10;99.90;;;;;;5002125;28;20083;-45
2022/07/07 01:50:09;;;;;;;9.05;5.57;;;14.10;99.90;;;;;;5020562;28;20050;-44
2022/07/07 01:52:36;;;;;;;11.82;5.30;;;14.10;99.90;;;;;;5018721;28;20061;-45
2022/07/07 01:55:02;;;;;;;9.27;5.95;;;14.00;99.90;;;;;;5019622;28;20044;-46
2022/07/07 01:57:28;;;;;;;15.43;6.10;;;13.90;99.90;;;;;;5024206;28;20410;-45
2022/07/07 01:59:53;;;;;;;13.00;7.05;;;13.90;99.90;;;;;;5021759;28;20022;-45
2022/07/07 02:02:19;;;;;;;14.15;6.72;;;13.90;99.90;;;;;;5020382;28;20041;-45
2022/07/07 02:04:45;;;;;;;10.55;6.28;;;13.80;99.90;;;;;;5019259;28;20487;-44
2022/07/07 02:07:11;;;;;;;12.00;6.20;;;13.80;99.90;;;;;;5018806;28;20022;-44
2022/07/07 02:09:36;;;;;;;13.18;7.38;;;13.80;99.90;;;;;;5021396;28;20036;-45
2022/07/07 02:12:03;;;;;;;12.60;7.13;;;13.80;99.90;;;;;;5019770;28;20025;-45
2022/07/07 02:14:29;;;;;;;16.30;7.45;;;13.80;99.90;;;;;;5019853;28;20041;-45
2022/07/07 02:16:55;;;;;;;12.98;7.30;;;13.80;99.90;;;;;;5018599;28;20360;-47
2022/07/07 02:19:20;;;;;;;9.73;7.97;;;13.80;99.90;;;;;;5019976;28;20021;-44
2022/07/07 02:21:46;;;;;;;13.35;7.75;;;13.80;99.90;;;;;;5019846;28;20111;-48
2022/07/07 02:24:12;;;;;;;11.65;7.95;;;13.80;99.90;;;;;;5017611;28;20032;-45
2022/07/07 02:26:37;;;;;;;14.20;8.85;;;13.80;99.90;;;;;;5023626;28;20144;-48
2022/07/07 02:29:04;;;;;;;12.73;8.45;;;13.80;99.90;;;;;;5025209;28;20461;-45
2022/07/07 02:31:30;;;;;;;12.27;8.20;;;13.80;99.90;;;;;;5018418;28;20038;-45
2022/07/07 02:33:56;;;;;;;13.10;9.52;;;13.80;99.90;;;;;;5019832;28;20107;-46
2022/07/07 02:36:21;;;;;;;12.63;8.70;;;13.90;99.90;;;;;;5018770;28;20096;-45
2022/07/07 02:38:48;;;;;;;14.13;8.93;;;13.90;99.90;;;;;;5018368;28;20487;-44
2022/07/07 02:41:13;;;;;;;13.05;9.35;;;13.90;99.90;;;;;;5019663;28;20116;-45
2022/07/07 02:43:39;;;;;;;11.02;7.43;;;13.80;99.90;;;;;;5016779;28;20100;-45
2022/07/07 02:46:05;;;;;;;14.38;8.75;;;13.80;99.90;;;;;;5018238;28;20482;-45
2022/07/07 02:48:31;;;;;;;10.07;7.97;;;13.90;99.90;;;;;;5019699;28;20506;-44
2022/07/07 02:50:56;;;;;;;15.07;8.75;;;13.90;99.90;;;;;;5020255;28;20280;-46
2022/07/07 02:53:22;;;;;;;12.23;8.80;;;13.80;99.90;;;;;;5018459;28;20033;-46
2022/07/07 02:55:48;;;;;;;14.05;9.48;;;13.80;99.90;;;;;;5018568;28;20025;-45
2022/07/07 02:58:22;;;;;;;11.55;7.75;;;13.80;99.90;;;;;;5027185;28;20025;-46
2022/07/07 03:00:49;;;;;;;10.75;8.55;;;13.70;99.90;;;;;;5020822;28;20105;-45
2022/07/07 03:03:15;;;;;;;14.15;8.25;;;13.80;99.90;;;;;;5018049;28;20025;-47
2022/07/07 03:05:40;;;;;;;13.48;9.27;;;13.70;99.90;;;;;;5018766;28;20425;-47
2022/07/07 03:08:06;;;;;;;12.48;9.15;;;13.80;99.90;;;;;;5019065;28;20466;-46
2022/07/07 03:10:32;;;;;;;11.32;8.30;;;13.80;99.90;;;;;;5017929;28;20052;-45
2022/07/07 03:12:57;;;;;;;14.77;8.75;;;13.70;99.90;;;;;;5019485;28;20037;-45
2022/07/07 03:15:23;;;;;;;13.20;9.00;;;13.80;99.90;;;;;;5018111;28;20022;-45
2022/07/07 03:17:49;;;;;;;14.15;9.43;;;13.80;99.90;;;;;;5018018;28;20026;-45
2022/07/07 03:20:16;;;;;;;16.33;9.20;;;13.80;99.90;;;;;;5019609;28;20395;-45
2022/07/07 03:22:42;;;;;;;14.05;9.07;;;13.80;99.90;;;;;;5018174;28;20053;-48
2022/07/07 03:25:09;;;;;;;11.30;8.88;;;13.80;99.90;;;;;;5017418;28;20014;-44
2022/07/07 03:27:35;;;;;;;13.43;9.70;;;13.80;99.90;;;;;;5026497;28;20064;-47
2022/07/07 03:30:03;;;;;;;11.82;9.30;;;13.80;99.90;;;;;;5022644;28;20545;-45
2022/07/07 03:32:29;;;;;;;11.40;8.80;;;13.80;99.90;;;;;;5010803;28;20029;-44
2022/07/07 03:34:54;;;;;;;12.77;9.13;;;13.80;99.90;;;;;;5014895;28;20063;-45
2022/07/07 03:37:20;;;;;;;12.73;9.50;;;13.90;99.90;;;;;;5017230;28;20049;-44
2022/07/07 03:39:45;;;;;;;16.98;9.80;;;13.90;99.90;;;;;;5016861;28;20041;-44
2022/07/07 03:42:10;;;;;;;12.48;9.00;;;13.90;99.90;;;;;;5016736;28;20524;-44
2022/07/07 03:44:36;;;;;;;13.30;9.63;;;13.90;99.90;;;;;;5014691;28;20018;-44
2022/07/07 03:47:03;;;;;;;13.73;10.05;;;13.90;99.90;;;;;;5016678;28;20100;-47
2022/07/07 03:49:29;;;;;;;16.27;10.43;;;13.90;99.90;;;;;;5016707;28;20029;-45
2022/07/07 03:51:54;;;;;;;14.60;10.32;;;14.00;99.90;;;;;;5035298;28;20025;-48
2022/07/07 03:54:20;;;;;;;19.80;10.65;;;14.00;99.90;;;;;;5025469;28;20125;-44
2022/07/07 03:56:45;;;;;;;15.43;10.73;;;14.00;99.90;;;;;;5041935;28;20025;-45
2022/07/07 03:59:11;;;;;;;15.40;10.05;;;14.00;99.90;;;;;;5029928;28;20387;-45
2022/07/07 04:01:36;;;;;;;14.80;10.70;;;13.90;99.90;;;;;;5031950;28;20033;-44
2022/07/07 04:04:04;;;;;;;13.38;10.82;;;14.00;99.90;;;;;;5029494;28;20033;-45
2022/07/07 04:06:31;;;;;;;15.00;10.25;;;14.00;99.90;;;;;;5027535;28;20503;-47
2022/07/07 04:08:57;;;;;;;15.68;11.55;;;14.00;99.90;;;;;;5029018;28;20112;-45
2022/07/07 04:11:22;;;;;;;16.75;11.50;;;14.10;99.90;;;;;;5024941;28;20108;-44
2022/07/07 04:13:48;;;;;;;20.92;12.05;;;14.00;99.90;;;;;;5026227;28;20495;-45
2022/07/07 04:16:13;;;;;;;20.48;14.57;;;14.10;99.90;;;;;;5024776;28;20030;-45
2022/07/07 04:18:39;;;;;;;18.25;14.00;;;14.00;99.90;;;;;;5027662;28;20022;-44
2022/07/07 04:21:04;;;;;;;18.67;12.20;;;14.00;99.90;;;;;;5026067;28;20052;-44
2022/07/07 04:23:30;;;;;;;21.50;13.32;;;14.10;99.90;;;;;;5026679;28;20022;-45
2022/07/07 04:25:56;;;;;;;21.33;13.50;;;14.10;99.90;;;;;;5021723;28;20045;-44
2022/07/07 04:28:22;;;;;;;18.77;13.45;;;14.10;99.90;;;;;;5046780;28;20033;-45
2022/07/07 04:30:47;;;;;;;22.70;12.93;;;14.10;99.90;;;;;;5034695;28;20064;-45
2022/07/07 04:33:13;;;;;;;17.40;13.55;;;14.10;99.90;;;;;;5031281;28;20091;-45
2022/07/07 04:35:38;;;;;;;21.60;12.48;;;14.10;99.90;;;;;;5034316;28;20463;-48
2022/07/07 04:38:04;;;;;;;17.38;13.60;;;14.20;99.90;;;;;;5034842;28;20025;-48
2022/07/07 04:40:29;;;;;;;19.08;13.23;;;14.20;99.90;;;;;;5034953;28;20026;-45
2022/07/07 04:42:55;;;;;;;22.13;14.57;;;14.20;99.90;;;;;;5034762;28;20024;-45
2022/07/07 04:45:20;;;;;;;23.27;15.60;;;14.20;99.90;;;;;;5031703;28;20021;-44
2022/07/07 04:47:46;;;;;;;20.23;14.20;;;14.20;99.90;;;;;;5031342;28;20018;-45
2022/07/07 04:50:12;;;;;;;19.33;14.82;;;14.30;99.90;;;;;;5046659;28;20459;-47
2022/07/07 04:52:39;;;;;;;18.73;14.20;;;14.30;99.90;;;;;;5031443;28;20025;-48
2022/07/07 04:55:05;;;;;;;22.67;14.65;;;14.30;99.90;;;;;;5030659;28;20422;-45
2022/07/07 04:57:31;;;;;;;20.17;14.10;;;14.30;99.90;;;;;;5038789;28;20029;-47
2022/07/07 04:59:57;;;;;;;17.23;12.68;;;14.30;99.90;;;;;;5043140;28;20402;-44
2022/07/07 05:02:22;;;;;;;18.85;14.40;;;14.30;99.90;;;;;;5051022;28;20248;-44
2022/07/07 05:04:49;;;;;;;19.50;15.38;;;14.30;99.90;;;;;;5050329;28;20033;-45
2022/07/07 05:07:14;;;;;;;21.92;16.20;;;14.30;99.90;;;;;;5050886;28;20518;-47
2022/07/07 05:09:40;;;;;;;20.60;16.15;;;14.30;99.90;;;;;;5050921;28;20184;-45
2022/07/07 05:12:06;;;;;;;22.05;16.00;;;14.30;99.90;;;;;;5050636;28;20025;-45
2022/07/07 05:14:31;;;;;;;23.13;17.73;;;14.30;99.90;;;;;;5050055;28;20037;-48
2022/07/07 05:16:57;;;;;;;21.25;15.80;;;14.30;99.90;;;;;;5050696;28;20029;-46
2022/07/07 05:19:22;;;;;;;22.02;18.10;;;14.30;99.90;;;;;;5050637;28;20033;-47
2022/07/07 05:21:48;;;;;;;23.23;17.83;;;14.30;99.90;;;;;;5050921;28;20025;-46
2022/07/07 05:24:14;;;;;;;22.75;18.15;;;14.30;99.90;;;;;;5049944;28;20017;-46
2022/07/07 05:26:39;;;;;;;23.77;18.67;;;14.30;99.90;;;;;;5042698;28;20112;-46
2022/07/07 05:29:05;;;;;;;25.60;17.40;;;14.30;99.90;;;;;;5042564;28;20040;-46
2022/07/07 05:31:31;;;;;;;25.58;16.73;;;14.40;99.90;;;;;;5050470;28;20046;-47
2022/07/07 05:33:56;;;;;;;24.05;17.25;;;14.30;99.90;;;;;;5050155;28;20024;-47
2022/07/07 05:36:22;;;;;;;22.60;17.75;;;14.30;99.90;;;;;;5050074;28;20025;-45
2022/07/07 05:38:47;;;;;;;22.25;17.05;;;14.30;99.90;;;;;;5050414;28;20021;-46
2022/07/07 05:41:13;;;;;;;22.58;17.17;;;14.30;99.90;;;;;;5050280;28;20017;-46
2022/07/07 05:43:38;;;;;;;20.85;15.90;;;14.30;99.90;;;;;;5050379;28;20029;-45
2022/07/07 05:46:04;;;;;;;22.30;15.80;;;14.40;99.90;;;;;;5049536;28;20024;-48
2022/07/07 05:48:29;;;;;;;22.85;16.58;;;14.30;99.90;;;;;;5047173;28;20064;-49
2022/07/07 05:50:55;;;;;;;21.05;15.75;;;14.40;99.90;;;;;;5048924;28;20036;-47
2022/07/07 05:53:21;;;;;;;19.98;15.30;;;14.40;99.90;;;;;;5049074;28;20028;-47
2022/07/07 05:55:46;;;;;;;22.45;16.08;;;14.40;99.90;;;;;;5045880;28;20032;-46
2022/07/07 05:58:12;;;;;;;18.35;13.90;;;14.50;99.90;;;;;;5036202;28;20025;-47
2022/07/07 06:00:38;;;;;;;18.15;14.98;;;14.50;99.90;;;;;;5029367;28;20083;-46
2022/07/07 06:03:04;;;;;;;20.10;16.05;;;14.40;99.90;;;;;;5028134;28;20037;-48
2022/07/07 06:05:29;;;;;;;20.80;16.25;;;14.50;99.90;;;;;;5027978;28;20318;-47
2022/07/07 06:07:55;;;;;;;23.90;16.48;;;14.50;99.90;;;;;;5028386;28;20556;-46
2022/07/07 06:10:20;;;;;;;20.15;16.90;;;14.50;99.90;;;;;;5028333;28;20022;-46
2022/07/07 06:12:46;;;;;;;17.90;15.25;;;14.50;99.90;;;;;;5027479;28;20053;-46
2022/07/07 06:15:12;;;;;;;20.10;16.95;;;14.60;99.90;;;;;;5027767;28;20041;-47
2022/07/07 06:17:38;;;;;;;26.15;17.52;;;14.60;99.90;;;;;;5028607;28;20121;-46
2022/07/07 06:20:04;;;;;;;23.08;17.58;;;14.60;99.90;;;;;;5028660;28;20026;-47
2022/07/07 06:22:29;;;;;;;19.88;15.77;;;14.70;99.90;;;;;;5028586;28;20166;-47
2022/07/07 06:24:55;;;;;;;18.63;15.95;;;14.60;99.90;;;;;;5029085;28;20021;-47
2022/07/07 06:27:21;;;;;;;24.48;18.80;;;14.60;99.90;;;;;;5036045;28;20079;-47
2022/07/07 06:29:47;;;;;;;22.33;16.98;;;14.60;99.90;;;;;;5040883;28;20363;-46
2022/07/07 06:32:15;;;;;;;21.55;18.02;;;14.60;99.90;;;;;;5049499;28;20087;-47
2022/07/07 06:34:42;;;;;;;23.02;17.48;;;14.70;99.90;;;;;;5048908;28;20448;-48
2022/07/07 06:37:08;;;;;;;23.30;18.38;;;14.70;99.90;;;;;;5049351;28;20029;-49
2022/07/07 06:39:33;;;;;;;24.42;17.77;;;14.60;99.90;;;;;;5049662;28;20032;-46
2022/07/07 06:41:59;;;;;;;22.92;18.80;;;14.60;99.90;;;;;;5049329;28;20463;-47
2022/07/07 06:44:30;;;;;;;25.17;17.83;;;14.60;99.90;;;;;;5048657;28;20462;-49
2022/07/07 06:46:59;;;;;;;24.33;16.73;;;14.60;99.90;;;;;;5049295;28;20020;-46
2022/07/07 06:49:25;;;;;;;21.27;17.00;;;14.60;99.90;;;;;;5049186;28;20041;-46
2022/07/07 06:51:51;;;;;;;22.63;17.80;;;14.60;99.90;;;;;;5049015;28;20025;-46
2022/07/07 06:54:16;;;;;;;21.20;16.83;;;14.60;99.90;;;;;;5048123;28;20040;-48
2022/07/07 06:56:42;;;;;;;23.60;18.63;;;14.70;99.90;;;;;;5041442;28;20022;-46
2022/07/07 06:59:07;;;;;;;26.90;20.45;;;14.60;99.90;;;;;;5039019;28;20059;-47
2022/07/07 07:01:33;;;;;;;24.85;18.77;;;14.70;99.90;;;;;;5048971;28;20032;-47
2022/07/07 07:03:58;;;;;;;26.05;20.17;;;14.80;99.90;;;;;;5048593;28;20375;-45
2022/07/07 07:06:25;;;;;;;23.02;18.98;;;14.90;99.90;;;;;;5041995;28;20014;-48
2022/07/07 07:08:51;;;;;;;22.25;18.17;;;14.90;99.90;;;;;;5028196;28;20030;-46
2022/07/07 07:11:16;;;;;;;26.05;19.70;;;14.90;99.90;;;;;;5028664;28;20056;-46
2022/07/07 07:13:42;;;;;;;25.75;18.25;;;14.90;99.90;;;;;;5028643;28;20140;-48
2022/07/07 07:16:08;;;;;;;23.17;19.70;;;14.80;99.90;;;;;;5028214;28;20120;-45
2022/07/07 07:18:33;;;;;;;25.52;19.20;;;14.80;99.90;;;;;;5028806;28;20029;-46
2022/07/07 07:20:59;;;;;;;30.20;21.52;;;14.80;99.90;;;;;;5028818;28;20036;-46
2022/07/07 07:23:24;;;;;;;27.92;21.58;;;14.80;99.90;;;;;;5028818;28;20479;-45
2022/07/07 07:25:50;;;;;;;27.45;22.00;;;14.90;99.90;;;;;;5028112;28;20056;-45
2022/07/07 07:28:16;;;;;;;25.35;22.30;;;14.90;99.90;;;;;;5036919;28;20022;-47
2022/07/07 07:30:41;;;;;;;28.10;21.55;;;14.90;99.90;;;;;;5047006;28;20021;-47
2022/07/07 07:33:07;;;;;;;28.48;21.88;;;14.90;99.90;;;;;;5048580;28;20368;-46
2022/07/07 07:35:32;;;;;;;30.05;24.27;;;14.90;99.90;;;;;;5048052;28;20029;-48
2022/07/07 07:37:58;;;;;;;26.92;21.92;;;15.00;99.90;;;;;;5048377;28;20040;-47
2022/07/07 07:40:23;;;;;;;30.10;23.35;;;14.90;99.90;;;;;;5048355;28;20033;-47
2022/07/07 07:42:49;;;;;;;30.95;22.92;;;14.90;99.90;;;;;;5047957;28;20482;-46
2022/07/07 07:45:15;;;;;;;28.45;21.33;;;14.90;99.90;;;;;;5047810;28;20060;-47
2022/07/07 07:47:42;;;;;;;28.13;23.17;;;14.90;99.90;;;;;;5048455;28;20485;-43
2022/07/07 07:50:13;;;;;;;26.45;21.98;;;14.80;99.90;;;;;;5048375;28;20029;-45
2022/07/07 07:52:40;;;;;;;30.73;24.40;;;14.90;99.90;;;;;;5048638;28;20028;-48
2022/07/07 07:55:07;;;;;;;33.22;25.77;;;15.00;99.90;;;;;;5047496;28;20026;-46
2022/07/07 07:57:33;;;;;;;34.88;26.60;;;15.00;99.90;;;;;;5039281;28;20028;-45
2022/07/07 07:59:58;;;;;;;33.35;27.63;;;15.20;99.90;;;;;;5039117;28;20025;-45
2022/07/07 08:02:24;;;;;;;30.83;25.75;;;15.50;99.90;;;;;;5047941;28;20471;-46
2022/07/07 08:04:50;;;;;;;29.83;23.67;;;15.90;99.90;;;;;;5047521;28;20112;-46
2022/07/07 08:07:15;;;;;;;24.10;20.75;;;16.40;99.90;;;;;;5048213;28;20056;-46
2022/07/07 08:09:41;;;;;;;22.23;18.02;;;16.60;99.90;;;;;;5048274;28;20033;-46
2022/07/07 08:12:06;;;;;;;17.77;13.18;;;16.70;99.90;;;;;;5048152;28;20505;-46
2022/07/07 08:14:32;;;;;;;15.10;13.50;;;16.70;99.90;;;;;;5047245;28;20448;-47
2022/07/07 08:16:57;;;;;;;16.20;14.40;;;16.60;99.90;;;;;;5046779;28;20060;-46
2022/07/07 08:19:23;;;;;;;14.90;13.40;;;16.40;99.90;;;;;;5047877;28;20246;-46
2022/07/07 08:21:48;;;;;;;16.38;14.68;;;16.20;99.90;;;;;;5051836;28;20017;-47
2022/07/07 08:24:15;;;;;;;18.27;16.40;;;16.10;99.90;;;;;;5051425;28;20435;-53
2022/07/07 08:26:41;;;;;;;19.58;17.00;;;16.00;99.90;;;;;;5043595;28;20025;-48
2022/07/07 08:29:06;;;;;;;22.02;16.60;;;15.90;99.90;;;;;;5043332;28;20036;-46
2022/07/07 08:31:32;;;;;;;20.65;17.50;;;15.90;99.90;;;;;;5052000;28;20025;-48
2022/07/07 08:33:58;;;;;;;23.35;19.85;;;15.90;99.90;;;;;;5051597;28;20120;-47
2022/07/07 08:36:23;;;;;;;24.83;19.48;;;16.00;99.90;;;;;;5051479;28;20025;-47
2022/07/07 08:38:49;;;;;;;22.73;18.85;;;16.10;99.90;;;;;;5051509;28;20479;-45
2022/07/07 08:41:15;;;;;;;19.45;17.17;;;16.40;99.90;;;;;;5051475;28;20135;-46
2022/07/07 08:43:41;;;;;;;19.60;16.45;;;16.50;99.90;;;;;;5051423;28;20500;-45
2022/07/07 08:46:08;;;;;;;12.80;11.43;;;17.30;99.90;;;;;;5050772;28;20090;-46
2022/07/07 08:48:34;;;;;;;8.85;8.02;;;18.00;99.90;;;;;;5049993;28;20103;-47
2022/07/07 08:51:01;;;;;;;6.88;6.18;;;18.20;99.90;;;;;;5051349;28;20123;-46
2022/07/07 08:53:32;;;;;;;10.00;7.10;;;18.30;99.90;;;;;;5051257;28;20033;-46
2022/07/07 08:56:02;;;;;;;6.85;6.15;;;18.30;99.90;;;;;;5046956;28;20128;-48
2022/07/07 08:58:27;;;;;;;6.87;6.17;;;18.50;99.90;;;;;;5039016;28;20025;-48
2022/07/07 09:00:53;;;;;;;9.18;6.68;;;18.20;99.90;;;;;;5051203;28;20259;-47
2022/07/07 09:03:18;;;;;;;8.05;6.63;;;18.20;99.90;;;;;;5051082;28;20032;-47
2022/07/07 09:05:44;;;;;;;6.80;6.20;;;18.20;99.90;;;;;;5050507;28;20466;-46
2022/07/07 09:08:18;;;;;;;6.68;6.07;;;17.90;99.90;;;;;;5050931;28;20078;-49
2022/07/07 09:10:44;;;;;;;8.73;6.22;;;17.60;99.90;;;;;;5050835;28;20041;-47
2022/07/07 09:13:39;;;;;;;6.22;5.63;;;17.60;99.90;;;;;;5050457;28;20031;-46
2022/07/07 09:16:14;;;;;;;6.65;6.05;;;17.50;99.90;;;;;;5045250;28;20041;-46
2022/07/07 09:18:43;;;;;;;7.35;6.57;;;17.40;99.90;;;;;;5049272;28;20618;-46
2022/07/07 09:21:29;;;;;;;7.70;6.68;;;17.50;99.90;;;;;;5050761;28;20514;-46
2022/07/07 09:24:00;;;;;;;6.20;5.70;;;17.20;99.90;;;;;;5050713;28;20118;-46
2022/07/07 09:26:43;;;;;;;6.43;5.60;;;17.30;99.90;;;;;;5043586;28;20062;-46
2022/07/07 09:29:14;;;;;;;5.57;4.97;;;17.30;99.90;;;;;;5033359;28;20564;-46
2022/07/07 09:31:51;;;;;;;;;;;17.30;99.90;;;;;;5031516;28;20079;-46
2022/07/07 09:34:18;;;;;;;6.70;6.10;;;17.20;99.90;;;;;;5041623;28;19951;-48
2022/07/07 09:39:58;;;;;;;6.15;5.63;;;17.30;99.90;;;;;;5050500;28;20440;-46
2022/07/07 09:42:26;;;;;;;7.20;6.55;;;17.30;99.90;;;;;;5045328;28;20033;-46
2022/07/07 09:45:00;;;;;;;7.38;6.03;;;17.20;99.90;;;;;;5049660;28;20027;-46
2022/07/07 09:47:25;;;;;;;7.25;5.82;;;17.10;99.90;;;;;;5050092;28;20056;-46
2022/07/07 09:50:06;;;;;;;5.80;5.18;;;17.00;99.90;;;;;;5032432;28;20068;-46
2022/07/07 09:52:34;;;;;;;8.13;6.00;;;17.00;99.90;;;;;;5050162;28;20029;-45
2022/07/07 09:55:01;;;;;;;7.82;6.57;;;16.90;99.90;;;;;;5049526;28;20114;-46
2022/07/07 09:57:27;;;;;;;8.90;6.35;;;16.90;99.90;;;;;;5050116;28;20028;-47
2022/07/07 09:59:53;;;;;;;9.15;7.40;;;16.90;99.90;;;;;;5049943;28;20386;-45
2022/07/07 10:02:25;;;;;;;12.38;7.32;;;17.20;99.90;;;;;;5043664;28;20498;-46
2022/07/07 10:04:53;;;;;;;5.78;4.68;;;17.90;99.90;;;;;;5041127;28;20100;-46
2022/07/07 10:07:21;;;;;;;5.20;3.13;;;19.00;99.90;;;;;;5049884;28;20013;-47
2022/07/07 10:09:55;;;;;;;2.80;2.60;;;20.00;99.90;;;;;;5049889;28;20035;-46
2022/07/07 10:12:25;;;;;;;3.45;2.40;;;20.70;99.90;;;;;;5049900;28;20459;-47
2022/07/07 10:15:04;;;;;;;5.55;2.67;;;21.20;99.90;;;;;;5049458;28;20260;-46
2022/07/07 10:17:31;;;;;;;2.97;2.10;;;21.30;99.90;;;;;;5049720;28;20032;-47
2022/07/07 10:19:58;;;;;;;2.13;1.92;;;21.60;99.90;;;;;;5049757;28;20160;-45
2022/07/07 10:22:27;;;;;;;2.45;2.20;;;21.60;99.90;;;;;;5049949;28;20021;-48
2022/07/07 10:24:58;;;;;;;2.77;2.23;;;21.30;99.90;;;;;;5049068;28;20071;-46
2022/07/07 10:27:26;;;;;;;2.38;1.80;;;21.00;99.90;;;;;;5049335;28;20752;-48
2022/07/07 10:29:57;;;;;;;2.40;2.20;;;20.80;99.90;;;;;;5049528;28;20037;-45
2022/07/07 10:32:38;;;;;;;;;;;20.70;99.90;;;;;;5040684;28;20079;-47
2022/07/07 10:35:12;;;;;;;2.60;2.38;;;20.60;99.90;;;;;;5034915;28;19904;-45
2022/07/07 10:37:48;;;;;;;4.38;2.38;;;20.30;99.90;;;;;;5021411;28;20061;-47
2022/07/07 10:40:38;;;;;;;3.13;2.83;;;20.40;99.90;;;;;;5018438;28;20431;-46
2022/07/07 10:43:23;;;;;;;3.53;2.17;;;20.50;99.90;;;;;;5042989;28;20040;-47
2022/07/07 10:45:52;;;;;;;3.53;2.55;;;20.30;99.90;;;;;;5039200;28;20033;-48
2022/07/07 10:48:39;;;;;;;3.13;2.63;;;20.00;99.90;;;;;;5019762;28;20045;-44
2022/07/07 10:51:25;;;;;;;2.85;2.35;;;19.70;99.90;;;;;;5020946;28;20057;-45
2022/07/07 10:53:56;;;;;;;2.72;2.53;;;19.80;99.90;;;;;;5022938;28;20036;-46
2022/07/07 10:56:22;;;;;;;2.60;2.40;;;20.20;99.90;;;;;;5010734;28;20537;-46
2022/07/07 10:58:55;;;;;;;4.45;2.28;;;21.50;99.90;;;;;;5009451;28;20271;-46
2022/07/07 11:01:23;;;;;;;3.35;2.58;;;22.80;99.90;;;;;;5012356;28;20132;-45
2022/07/07 11:03:48;;;;;;;2.35;1.88;;;23.20;99.90;;;;;;5039922;28;20072;-46
2022/07/07 11:06:14;;;;;;;1.52;1.40;;;23.60;99.90;;;;;;5048630;28;20489;-47
2022/07/07 11:08:40;;;;;;;4.65;1.55;;;23.50;99.90;;;;;;5049273;28;20033;-48
2022/07/07 11:11:06;;;;;;;4.00;3.20;;;22.60;99.90;;;;;;5048840;28;20031;-46
2022/07/07 11:13:37;;;;;;;4.57;2.20;;;21.70;99.90;;;;;;5048920;28;20108;-46
2022/07/07 11:16:06;;;;;;;3.90;1.88;;;20.80;99.90;;;;;;5048276;28;20028;-46
2022/07/07 11:18:33;;;;;;;5.57;2.45;;;19.90;99.90;;;;;;5048519;28;20032;-45
2022/07/07 11:21:01;;;;;;;2.90;2.17;;;19.40;99.90;;;;;;5039068;28;20034;-47
2022/07/07 11:23:54;;;;;;;4.13;2.65;;;19.10;99.90;;;;;;5025285;28;20399;-45
2022/07/07 11:26:23;;;;;;;2.58;2.35;;;19.20;99.90;;;;;;5050611;28;20108;-46
2022/07/07 11:28:49;;;;;;;3.08;2.30;;;20.20;99.90;;;;;;5017900;28;20090;-48
2022/07/07 11:31:15;;;;;;;2.65;2.20;;;21.60;99.90;;;;;;5024879;28;20027;-45
2022/07/07 11:33:41;;;;;;;3.13;2.00;;;22.40;99.90;;;;;;5037803;28;20100;-46
2022/07/07 11:36:20;;;;;;;3.47;2.30;;;23.10;99.90;;;;;;5013597;28;20034;-46
2022/07/07 11:38:49;;;;;;;4.63;1.95;;;24.10;99.90;;;;;;5008895;28;20491;-45
2022/07/07 11:41:15;;;;;;;5.00;2.50;;;24.40;99.90;;;;;;5018301;28;20050;-47
2022/07/07 11:43:41;;;;;;;2.00;1.48;;;24.10;99.90;;;;;;5014202;28;20081;-46
2022/07/07 11:46:06;;;;;;;4.30;2.10;;;23.60;99.90;;;;;;5007998;28;20125;-45
2022/07/07 11:48:34;;;;;;;3.70;2.40;;;23.00;99.90;;;;;;5008049;28;20080;-46
2022/07/07 11:51:00;;;;;;;4.78;2.10;;;22.10;99.90;;;;;;5028476;28;20021;-46
2022/07/07 11:53:25;;;;;;;3.42;2.10;;;21.10;99.90;;;;;;5028063;28;20123;-45
2022/07/07 11:55:51;;;;;;;3.67;2.33;;;20.10;99.90;;;;;;5030271;28;20498;-46
2022/07/07 11:58:16;;;;;;;3.47;2.40;;;19.60;99.90;;;;;;5032300;28;20033;-46
2022/07/07 12:00:42;;;;;;;7.90;2.65;;;19.30;99.90;;;;;;5032041;28;20502;-46
2022/07/07 12:03:08;;;;;;;3.08;2.40;;;19.10;99.90;;;;;;5040095;28;20075;-46
2022/07/07 12:05:36;;;;;;;4.97;2.95;;;19.00;99.90;;;;;;5048361;28;20036;-46
2022/07/07 12:08:07;;;;;;;5.68;2.78;;;19.00;99.90;;;;;;5052250;28;20295;-45
2022/07/07 12:10:35;;;;;;;5.72;2.85;;;19.00;99.90;;;;;;5051797;28;20025;-45
2022/07/07 12:13:12;;;;;;;3.90;2.60;;;19.10;99.90;;;;;;5052112;28;20060;-46
2022/07/07 12:15:46;;;;;;;4.68;2.58;;;19.40;99.90;;;;;;5050783;28;20021;-46
2022/07/07 12:18:13;;;;;;;3.55;2.30;;;19.80;99.90;;;;;;5045473;28;20062;-46
2022/07/07 12:20:39;;;;;;;3.03;2.30;;;20.20;99.90;;;;;;5019369;28;20369;-45
2022/07/07 12:23:16;;;;;;;4.95;2.50;;;20.60;99.90;;;;;;5021158;28;20030;-44
2022/07/07 12:25:41;;;;;;;2.70;2.42;;;20.90;99.90;;;;;;5022388;28;20188;-45
2022/07/07 12:28:09;;;;;;;4.07;2.20;;;21.00;99.90;;;;;;5019586;28;20048;-45
2022/07/07 12:30:51;;;;;;;3.78;2.53;;;20.70;99.90;;;;;;5004238;28;20014;-44
2022/07/07 12:33:32;;;;;;;4.10;2.28;;;20.50;99.90;;;;;;5030724;28;20421;-45
2022/07/07 12:36:12;;;;;;;4.35;2.50;;;20.00;99.90;;;;;;5023747;28;20391;-46
2022/07/07 12:38:39;;;;;;;4.88;2.72;;;19.60;99.90;;;;;;5023223;28;20084;-46
2022/07/07 12:41:05;;;;;;;6.80;2.35;;;19.40;99.90;;;;;;5022114;28;20370;-46